Upstream stations:
Downstream station:
SHEF ID: AMAT2 Canadian Rv nr Amarillo, TX
STATION TYPE:
Regulating: Stage = 13.00, Flow = 87096
STAGE RIV-FLOW WTR-TEMP CONDUCT BAT-LOAD
ft cfs F umho/cm volt
Ccp-Rev Ccp-Rev Ccp-Rev Ccp-Rev Ccp-Rev
(US/Central)
05/14 00:00 0.82 3 63.68 2 12.73
05/14 01:00 0.82 3 63.63 2 12.65
05/14 02:00 0.81 3 63.55 2 12.65
05/14 03:00 0.81 3 63.43 2 12.65
05/14 04:00 0.82 3 63.30 2 12.65
05/14 05:00 0.82 3 63.14 2 12.65
05/14 06:00 0.83 3 62.96 2 12.57
05/14 07:00 0.84 4 62.78 2 12.65
05/14 08:00 0.83 3 62.58 2 12.73
05/14 09:00 0.85 4 62.40 2 12.97
05/14 10:00 0.76 1 62.22 2 13.05
05/14 11:00 1.22 24 62.08 2 13.13
05/14 12:00 0.94 7 61.99 2 13.13
05/14 13:00 0.81 3 62.02 2 13.05
05/14 14:00 1.09 15 62.17 2 13.05
05/14 15:00 0.86 4 62.42 2 13.05
05/14 16:00 0.83 3 62.73 2 13.05
05/14 17:00 0.82 3 63.01 2 12.89
05/14 18:00 0.66 0 63.23 2 12.81
05/14 19:00 0.82 3 63.39 2 12.81
05/14 20:00 0.90 6 63.54 2 12.81
05/14 21:00 0.86 4 63.63 2 12.81
05/14 22:00 0.86 4 63.72 2 12.81
05/14 23:00 ---- ---- ---- ---- ----